Flight Track Log - Related Links

Times and Time Zones

All times are in EDT time to prevent confusion due to time zone crossing. See the N96PD flight status page for this flight to view local times or setup timezone preferences in your user account.

Time Position Orientation Groundspeed Altitude Reporting Facility
EDT Latitude Longitude Course Direction KTS MPH feet Rate Location/Type
Wed 05:09:45 PM 29.4279 -98.3985 130° Southeast 249 287 8,400  Level FlightAware ADS-B
Wed 05:10:17 PM 29.4113 -98.4381 244° Southwest 247 284 9,600 2,400 Climbing FlightAware ADS-B
Wed 05:10:30 PM 29.4086 -98.4571 261° West 274 315 10,200 2,897 Climbing FlightAware ADS-B
Wed 05:10:46 PM 29.4159 -98.4779 292° West 270 311 11,000 3,000 Climbing FlightAware ADS-B
Wed 05:10:50 PM 29.4190 -98.4820 311° West 269 310 11,200 3,111 Climbing FlightAware ADS-B
Wed 05:11:13 PM 29.4426 -98.5006 326° Northwest 270 311 12,400 2,700 Climbing FlightAware ADS-B
Wed 05:11:30 PM 29.4610 -98.5137 328° Northwest 282 325 13,000 875 Climbing FlightAware ADS-B
Wed 05:12:01 PM 29.4996 -98.5398 330° Northwest 314 361 13,100 98 Climbing FlightAware ADS-B
Wed 05:12:31 PM 29.5394 -98.5667 330° Northwest 332 382 13,100 1,180 Level FlightAware ADS-B
Wed 05:13:02 PM 29.5793 -98.5938 329° Northwest 320 368 14,300 2,557 Climbing FlightAware ADS-B
Wed 05:13:32 PM 29.6176 -98.6198 303° West 317 365 15,700 2,516 Climbing FlightAware ADS-B
Wed 05:14:04 PM 29.6575 -98.6468 330° Northwest 324 373 16,900 2,190 Climbing FlightAware ADS-B
Wed 05:14:35 PM 29.6986 -98.6746 330° Northwest 330 380 18,000 2,361 Climbing FlightAware ADS-B
Wed 05:15:05 PM 29.7389 -98.7020 329° Northwest 331 381 19,300 2,765 Climbing FlightAware ADS-B
Wed 05:16:17 PM 29.8335 -98.7661 330° Northwest 330 380 22,700 2,547 Climbing FlightAware ADS-B
Wed 05:16:51 PM 29.8776 -98.7975 328° Northwest 335 386 23,800 1,875 Climbing FlightAware ADS-B
Wed 05:17:21 PM 29.9099 -98.8353 315° West 342 394 24,700 1,672 Climbing FlightAware ADS-B
Wed 05:17:52 PM 29.9421 -98.8801 310° West 350 403 25,500 1,385 Climbing FlightAware ADS-B
Wed 05:18:26 PM 29.9773 -98.9298 309° West 367 422 26,200 1,268 Climbing FlightAware ADS-B
Wed 05:19:03 PM 30.0176 -98.9868 309° West 367 422 27,000 806 Climbing FlightAware ADS-B
Wed 05:19:33 PM 30.0444 -99.0258 309° West 380 437 27,100 1,761 Climbing Houston Center
Wed 05:20:35 PM 30.1161 -99.1281 309° West 380 437 29,700 2,468 Climbing Houston Center
Wed 05:21:37 PM 30.1906 -99.2108 316° Northwest 371 427 32,200 2,371 Climbing Houston Center
Wed 05:22:39 PM 30.2658 -99.3011 314° West 364 419 34,600 1,935 Climbing Houston Center
Wed 05:23:41 PM 30.3344 -99.3853 313° West 360 414 36,200 1,984 Climbing Houston Center
Wed 05:24:43 PM 30.4036 -99.4639 316° Northwest 346 398 38,700 1,728 Climbing Houston Center
Wed 05:25:46 PM 30.4700 -99.5444 314° West 344 396 39,800 624 Climbing Houston Center
Wed 05:26:48 PM 30.5381 -99.6244 315° West 345 397 40,000 97 Climbing Houston Center
Wed 05:27:50 PM 30.6150 -99.7125 315° West 379 436 40,000  Level Houston Center
Wed 05:28:52 PM 30.6914 -99.8058 314° West 397 457 40,000  Level Houston Center
Wed 05:29:54 PM 30.7686 -99.9003 314° West 401 461 40,000  Level Houston Center
Wed 05:30:56 PM 30.8656 -100.0125 315° West 416 479 40,000  Level Houston Center
Wed 05:31:58 PM 30.9469 -100.1097 314° West 413 475 40,000  Level Houston Center
Wed 05:33:00 PM 31.0289 -100.2033 316° Northwest 411 473 40,000  Level Houston Center
Wed 05:34:03 PM 31.1108 -100.3003 315° West 418 481 40,000  Level Houston Center
Wed 05:35:05 PM 31.1908 -100.3978 314° West 415 478 40,000  Level Houston Center
Wed 05:35:31 PM 31.2247 -100.4450 310° West 414 476 40,000  Level Fort Worth Center
Wed 05:36:31 PM 31.3058 -100.5400 315° West 414 476 40,000  Level Fort Worth Center
Wed 05:37:31 PM 31.3808 -100.6325 314° West 414 476 40,000  Level Fort Worth Center
Wed 05:38:31 PM 31.4681 -100.7331 315° West 408 470 40,000  Level Fort Worth Center
Wed 05:39:31 PM 31.5489 -100.8286 315° West 403 464 40,000  Level Fort Worth Center
Wed 05:40:31 PM 31.6336 -100.9342 313° West 409 471 40,000  Level Fort Worth Center
Wed 05:41:31 PM 31.7125 -101.0275 315° West 409 471 40,000  Level Fort Worth Center
Wed 05:42:30 PM 31.7892 -101.1208 314° West 404 465 40,000  Level Fort Worth Center
Wed 05:43:31 PM 31.8675 -101.2194 313° West 404 465 40,000  Level Fort Worth Center
Wed 05:44:31 PM 31.9439 -101.3133 314° West 404 465 40,000  Level Fort Worth Center
Wed 05:45:31 PM 32.0225 -101.4097 314° West 404 465 40,000  Level Fort Worth Center
Wed 05:46:31 PM 32.1006 -101.5064 314° West 404 465 40,000  Level Fort Worth Center
Wed 05:47:31 PM 32.1725 -101.6028 311° West 404 465 40,000  Level Fort Worth Center
Wed 05:48:31 PM 32.2467 -101.6969 313° West 399 459 40,000  Level Fort Worth Center
Wed 05:49:31 PM 32.3267 -101.7967 314° West 404 465 40,000  Level Fort Worth Center
Wed 05:50:31 PM 32.4025 -101.8939 313° West 404 465 40,000  Level Fort Worth Center
Wed 05:51:31 PM 32.4806 -101.9889 314° West 404 465 40,000  Level Fort Worth Center
Wed 05:52:31 PM 32.5606 -102.0867 314° West 404 465 40,000  Level Fort Worth Center
Wed 05:53:31 PM 32.6381 -102.1844 313° West 404 465 40,000  Level Fort Worth Center
Wed 05:54:31 PM 32.7100 -102.2722 314° West 410 472 40,000  Level Fort Worth Center
Wed 05:55:31 PM 32.7875 -102.3725 313° West 410 472 40,000  Level Fort Worth Center
Wed 05:56:31 PM 32.8647 -102.4733 312° West 410 472 40,000  Level Fort Worth Center
Wed 05:57:31 PM 32.9342 -102.5664 312° West 399 459 40,000  Level Fort Worth Center
Wed 05:59:22 PM 33.0753 -102.7439 314° West 408 470 40,000  Level Albuquerque Center
Wed 06:00:24 PM 33.1661 -102.8647 312° West 410 472 40,000  Level Albuquerque Center
Wed 06:01:26 PM 33.2431 -102.9631 313° West 407 468 40,000  Level Albuquerque Center
Wed 06:02:28 PM 33.3200 -103.0611 313° West 405 466 40,000  Level Albuquerque Center
Wed 06:03:30 PM 33.3947 -103.1603 312° West 403 464 40,000  Level Albuquerque Center
Wed 06:04:32 PM 33.4703 -103.2583 313° West 402 463 40,000  Level Albuquerque Center
Wed 06:05:34 PM 33.5444 -103.3581 312° West 400 460 40,000  Level Albuquerque Center
Wed 06:06:36 PM 33.6333 -103.4733 313° West 395 455 40,000  Level Albuquerque Center
Wed 06:07:38 PM 33.7039 -103.5708 311° West 389 448 40,000  Level Albuquerque Center
Wed 06:08:40 PM 33.7847 -103.6700 314° West 383 441 40,000  Level Albuquerque Center
Wed 06:09:42 PM 33.8578 -103.7658 313° West 387 445 40,000  Level Albuquerque Center
Wed 06:10:44 PM 33.9369 -103.8689 313° West 390 449 40,000  Level Albuquerque Center
Wed 06:11:46 PM 34.0025 -103.9586 311° West 386 444 40,000  Level Albuquerque Center
Wed 06:12:48 PM 34.0756 -104.0572 312° West 388 447 40,000  Level Albuquerque Center
Wed 06:13:50 PM 34.1603 -104.1697 312° West 386 444 40,000  Level Albuquerque Center
Wed 06:14:52 PM 34.2331 -104.2675 312° West 385 443 40,000  Level Albuquerque Center
Wed 06:15:54 PM 34.3058 -104.3650 312° West 386 444 40,000  Level Albuquerque Center
Wed 06:16:56 PM 34.3803 -104.4642 312° West 390 449 40,000  Level Albuquerque Center
Wed 06:17:58 PM 34.4553 -104.5647 312° West 395 455 40,000 -290 Level Albuquerque Center
Wed 06:19:00 PM 34.5300 -104.6661 312° West 397 457 39,400 -774 Descending Albuquerque Center
Wed 06:20:02 PM 34.6017 -104.7631 312° West 387 445 38,400 -968 Descending Albuquerque Center
Wed 06:21:04 PM 34.6764 -104.8650 312° West 392 451 37,400 -968 Descending Albuquerque Center
Wed 06:22:06 PM 34.7544 -104.9708 312° West 406 467 36,400 -1,355 Descending Albuquerque Center
Wed 06:23:08 PM 34.8442 -105.0936 312° West 411 473 34,600 -2,129 Descending Albuquerque Center
Wed 06:24:10 PM 34.9186 -105.1950 312° West 403 464 32,000 -2,516 Descending Albuquerque Center
Wed 06:25:12 PM 34.9900 -105.2931 312° West 390 449 29,400 -2,565 Descending Albuquerque Center
Wed 06:26:14 PM 35.0594 -105.3892 311° West 380 437 26,700 -2,565 Descending Albuquerque Center
Wed 06:27:16 PM 35.1261 -105.4842 311° West 370 426 24,100 -2,565 Descending Albuquerque Center
Wed 06:28:18 PM 35.1958 -105.5808 311° West 371 427 21,400 -2,565 Descending Albuquerque Center
Wed 06:29:20 PM 35.2661 -105.6803 311° West 379 436 18,800 -2,516 Descending Albuquerque Center
Wed 06:30:22 PM 35.3347 -105.7744 312° West 373 429 16,200 -2,516 Descending Albuquerque Center

Login

Don't have an account? Register now (free) for customized features, flight alerts, and more!